Time,TemperatureF,DewpointF,PressureIn,WindDirection,WindDirectionDegrees,WindSpeedMPH,WindSpeedGustMPH,Humidity,HourlyPrecipIn,Conditions,Clouds,dailyrainin,SolarRadiationWatts/m^2,SoftwareType,DateUTC
2013-09-11 00:03:00,62.0,59.0,-100.00,NW,314,0.0,4.0,89,0.00,,,0.05,0.000000,,2013-09-11 05:03:00,
2013-09-11 00:13:00,62.0,59.0,-100.00,NW,314,0.0,4.0,89,0.00,,,0.05,0.000000,,2013-09-11 05:13:00,
2013-09-11 00:20:00,59.0,58.0,-100.00,SSW,200,0.0,4.0,96,0.00,,,0.05,0.000000,,2013-09-11 05:20:00,
2013-09-11 00:53:00,59.0,58.0,-100.00,SSW,200,0.0,4.0,96,0.00,,,0.05,0.000000,,2013-09-11 05:53:00,
2013-09-11 01:02:00,59.0,58.0,-100.00,SSW,200,0.0,4.0,96,0.00,,,0.05,0.000000,,2013-09-11 06:02:00,
2013-09-11 01:12:00,59.0,58.0,-100.00,SSW,200,0.0,4.0,96,0.00,,,0.05,0.000000,,2013-09-11 06:12:00,
2013-09-11 01:20:00,59.0,58.0,-100.00,SSW,210,0.0,2.0,98,0.00,,,0.05,0.000000,,2013-09-11 06:20:00,
2013-09-11 01:52:00,59.0,58.0,-100.00,SSW,210,0.0,2.0,98,0.00,,,0.05,0.000000,,2013-09-11 06:52:00,
2013-09-11 02:02:00,59.0,58.0,-100.00,SSW,210,0.0,2.0,98,0.00,,,0.05,0.000000,,2013-09-11 07:02:00,
2013-09-11 02:12:00,59.0,58.0,-100.00,SSW,210,0.0,2.0,98,0.00,,,0.05,0.000000,,2013-09-11 07:12:00,
2013-09-11 02:20:00,59.0,58.0,-100.00,SW,229,0.0,0.0,98,0.00,,,-99.99,0.000000,,2013-09-11 07:20:00,
2013-09-11 02:53:00,59.0,58.0,-100.00,SW,229,0.0,0.0,98,0.00,,,-99.99,0.000000,,2013-09-11 07:53:00,
2013-09-11 03:02:00,59.0,58.0,-100.00,SW,229,0.0,0.0,98,0.00,,,-99.99,0.000000,,2013-09-11 08:02:00,
2013-09-11 03:12:00,59.0,58.0,-100.00,SW,229,0.0,0.0,98,0.00,,,-99.99,0.000000,,2013-09-11 08:12:00,
2013-09-11 03:20:00,59.0,58.0,-100.00,South,188,0.0,0.0,98,0.00,,,0.05,0.000000,,2013-09-11 08:20:00,
2013-09-11 03:52:00,59.0,58.0,-100.00,South,188,0.0,0.0,98,0.00,,,0.05,0.000000,,2013-09-11 08:52:00,
2013-09-11 04:02:00,59.0,58.0,-100.00,South,188,0.0,0.0,98,0.00,,,0.05,0.000000,,2013-09-11 09:02:00,
2013-09-11 04:12:00,59.0,58.0,-100.00,South,188,0.0,0.0,98,0.00,,,0.05,0.000000,,2013-09-11 09:12:00,
2013-09-11 04:20:00,58.0,57.0,-100.00,SSW,212,0.0,1.0,98,0.00,,,0.05,0.000000,,2013-09-11 09:20:00,
2013-09-11 04:53:00,58.0,57.0,-100.00,SSW,212,0.0,1.0,98,0.00,,,0.05,0.000000,,2013-09-11 09:53:00,
2013-09-11 05:03:00,58.0,57.0,-100.00,SSW,212,0.0,1.0,98,0.00,,,0.05,0.000000,,2013-09-11 10:03:00,
2013-09-11 05:13:00,58.0,57.0,-100.00,SSW,212,0.0,1.0,98,0.00,,,0.05,0.000000,,2013-09-11 10:13:00,
2013-09-11 05:20:00,58.0,58.0,-100.00,SSW,197,0.0,2.0,99,0.00,,,0.05,0.000000,,2013-09-11 10:20:00,
2013-09-11 05:53:00,58.0,58.0,-100.00,SSW,197,0.0,2.0,99,0.00,,,0.05,0.000000,,2013-09-11 10:53:00,
2013-09-11 06:03:00,58.0,58.0,-100.00,SSW,197,0.0,2.0,99,0.00,,,0.05,0.000000,,2013-09-11 11:03:00,
2013-09-11 06:12:00,58.0,58.0,-100.00,SSW,197,0.0,2.0,99,0.00,,,0.05,0.000000,,2013-09-11 11:12:00,
2013-09-11 06:20:00,58.0,58.0,-100.00,SSW,208,0.0,0.0,99,0.00,,,-99.99,0.000000,,2013-09-11 11:20:00,
2013-09-11 06:52:00,58.0,58.0,-100.00,SSW,208,0.0,0.0,99,0.00,,,-99.99,0.000000,,2013-09-11 11:52:00,
2013-09-11 07:01:00,58.0,58.0,-100.00,SSW,208,0.0,0.0,99,0.00,,,-99.99,0.000000,,2013-09-11 12:01:00,
2013-09-11 07:11:00,58.0,58.0,-100.00,SSW,208,0.0,0.0,99,0.00,,,-99.99,0.000000,,2013-09-11 12:11:00,
2013-09-11 07:20:00,60.0,60.0,-100.00,SSW,213,0.0,3.0,99,0.00,,,-99.99,11.000000,,2013-09-11 12:20:00,
2013-09-11 07:52:00,60.0,60.0,-100.00,SSW,213,0.0,3.0,99,0.00,,,-99.99,11.000000,,2013-09-11 12:52:00,
2013-09-11 08:02:00,60.0,60.0,-100.00,SSW,213,0.0,3.0,99,0.00,,,-99.99,11.000000,,2013-09-11 13:02:00,
2013-09-11 08:12:00,60.0,60.0,-100.00,SSW,213,0.0,3.0,99,0.00,,,-99.99,11.000000,,2013-09-11 13:12:00,
2013-09-11 08:20:00,65.0,61.0,-100.00,WSW,240,4.0,7.0,88,0.00,,,0.00,133.000000,,2013-09-11 13:20:00,
2013-09-11 08:52:00,65.0,61.0,-100.00,WSW,240,4.0,7.0,88,0.00,,,0.00,133.000000,,2013-09-11 13:52:00,
2013-09-11 09:02:00,65.0,61.0,-100.00,WSW,240,4.0,7.0,88,0.00,,,0.00,133.000000,,2013-09-11 14:02:00,
2013-09-11 09:11:00,65.0,61.0,-100.00,WSW,240,4.0,7.0,88,0.00,,,0.00,133.000000,,2013-09-11 14:11:00,
2013-09-11 09:20:00,70.0,61.0,-100.00,West,272,8.0,11.0,72,0.00,,,0.00,338.000000,,2013-09-11 14:20:00,
2013-09-11 09:52:00,70.0,61.0,-100.00,West,272,8.0,11.0,72,0.00,,,0.00,338.000000,,2013-09-11 14:52:00,
2013-09-11 10:02:00,70.0,61.0,-100.00,West,272,8.0,11.0,72,0.00,,,0.00,338.000000,,2013-09-11 15:02:00,
2013-09-11 10:11:00,70.0,61.0,-100.00,West,272,8.0,11.0,72,0.00,,,0.00,338.000000,,2013-09-11 15:11:00,
2013-09-11 10:20:00,75.0,61.0,-100.00,West,263,7.0,11.0,61,0.00,,,0.00,536.000000,,2013-09-11 15:20:00,
2013-09-11 10:54:00,75.0,61.0,-100.00,West,263,7.0,11.0,61,0.00,,,0.00,536.000000,,2013-09-11 15:54:00,
2013-09-11 11:03:00,75.0,61.0,-100.00,West,263,7.0,11.0,61,0.00,,,0.00,536.000000,,2013-09-11 16:03:00,
2013-09-11 11:13:00,75.0,61.0,-100.00,West,263,7.0,11.0,61,0.00,,,0.00,536.000000,,2013-09-11 16:13:00,
2013-09-11 11:20:00,77.0,60.0,-100.00,WNW,302,11.0,18.0,55,0.00,,,0.00,687.000000,,2013-09-11 16:20:00,
2013-09-11 11:53:00,77.0,60.0,-100.00,WNW,302,11.0,18.0,55,0.00,,,0.00,687.000000,,2013-09-11 16:53:00,
2013-09-11 12:03:00,77.0,60.0,-100.00,WNW,302,11.0,18.0,55,0.00,,,0.00,687.000000,,2013-09-11 17:03:00,
2013-09-11 12:12:00,77.0,60.0,-100.00,WNW,302,11.0,18.0,55,0.00,,,0.00,687.000000,,2013-09-11 17:12:00,
2013-09-11 12:20:00,79.0,56.0,-100.00,NW,321,10.0,18.0,45,0.00,,,0.00,804.000000,,2013-09-11 17:20:00,
2013-09-11 12:52:00,79.0,56.0,-100.00,NW,321,10.0,18.0,45,0.00,,,0.00,804.000000,,2013-09-11 17:52:00,
2013-09-11 13:02:00,79.0,56.0,-100.00,NW,321,10.0,18.0,45,0.00,,,0.00,804.000000,,2013-09-11 18:02:00,
2013-09-11 13:12:00,79.0,56.0,-100.00,NW,321,10.0,18.0,45,0.00,,,0.00,804.000000,,2013-09-11 18:12:00,
2013-09-11 13:20:00,80.0,48.0,-100.00,NNW,342,10.0,22.0,33,0.00,,,-99.99,861.000000,,2013-09-11 18:20:00,
2013-09-11 13:52:00,80.0,48.0,-100.00,NNW,342,10.0,22.0,33,0.00,,,-99.99,861.000000,,2013-09-11 18:52:00,
2013-09-11 14:01:00,80.0,48.0,-100.00,NNW,342,10.0,22.0,33,0.00,,,-99.99,861.000000,,2013-09-11 19:01:00,
2013-09-11 14:11:00,80.0,48.0,-100.00,NNW,342,10.0,22.0,33,0.00,,,-99.99,861.000000,,2013-09-11 19:11:00,
2013-09-11 14:20:00,82.0,47.0,-100.00,NW,304,11.0,23.0,30,0.00,,,-99.99,853.000000,,2013-09-11 19:20:00,
2013-09-11 14:53:00,82.0,47.0,-100.00,NW,304,11.0,23.0,30,0.00,,,-99.99,853.000000,,2013-09-11 19:53:00,
2013-09-11 15:02:00,82.0,47.0,-100.00,NW,304,11.0,23.0,30,0.00,,,-99.99,853.000000,,2013-09-11 20:02:00,
2013-09-11 15:12:00,82.0,47.0,-100.00,NW,304,11.0,23.0,30,0.00,,,-99.99,853.000000,,2013-09-11 20:12:00,
2013-09-11 15:20:00,83.0,48.0,-100.00,NW,311,10.0,21.0,30,0.00,,,0.00,768.000000,,2013-09-11 20:20:00,
2013-09-11 15:52:00,83.0,48.0,-100.00,NW,311,10.0,21.0,30,0.00,,,0.00,768.000000,,2013-09-11 20:52:00,
2013-09-11 16:02:00,83.0,48.0,-100.00,NW,311,10.0,21.0,30,0.00,,,0.00,768.000000,,2013-09-11 21:02:00,
2013-09-11 16:12:00,83.0,48.0,-100.00,NW,311,10.0,21.0,30,0.00,,,0.00,768.000000,,2013-09-11 21:12:00,
2013-09-11 16:20:00,83.0,49.0,-100.00,WNW,298,10.0,20.0,31,0.00,,,0.00,634.000000,,2013-09-11 21:20:00,
2013-09-11 16:54:00,83.0,49.0,-100.00,WNW,298,10.0,20.0,31,0.00,,,0.00,634.000000,,2013-09-11 21:54:00,
2013-09-11 17:04:00,83.0,49.0,-100.00,WNW,298,10.0,20.0,31,0.00,,,0.00,634.000000,,2013-09-11 22:04:00,
2013-09-11 17:13:00,83.0,49.0,-100.00,WNW,298,10.0,20.0,31,0.00,,,0.00,634.000000,,2013-09-11 22:13:00,
2013-09-11 17:20:00,81.0,49.0,-100.00,WNW,293,8.0,16.0,33,0.00,,,0.00,308.000000,,2013-09-11 22:20:00,
2013-09-11 17:54:00,81.0,49.0,-100.00,WNW,293,8.0,16.0,33,0.00,,,0.00,308.000000,,2013-09-11 22:54:00,
2013-09-11 18:03:00,81.0,49.0,-100.00,WNW,293,8.0,16.0,33,0.00,,,0.00,308.000000,,2013-09-11 23:03:00,
2013-09-11 18:12:00,81.0,49.0,-100.00,WNW,293,8.0,16.0,33,0.00,,,0.00,308.000000,,2013-09-11 23:12:00,
2013-09-11 18:20:00,81.0,50.0,-100.00,WNW,283,7.0,18.0,34,0.00,,,0.00,282.000000,,2013-09-11 23:20:00,
2013-09-11 18:53:00,81.0,50.0,-100.00,WNW,283,7.0,18.0,34,0.00,,,0.00,282.000000,,2013-09-11 23:53:00,
2013-09-11 19:01:00,81.0,50.0,-100.00,WNW,283,7.0,18.0,34,0.00,,,0.00,282.000000,,2013-09-12 00:01:00,
2013-09-11 19:11:00,81.0,50.0,-100.00,WNW,283,7.0,18.0,34,0.00,,,0.00,282.000000,,2013-09-12 00:11:00,
2013-09-11 19:20:00,75.0,54.0,-100.00,West,273,2.0,14.0,48,0.00,,,0.00,86.000000,,2013-09-12 00:20:00,
2013-09-11 19:52:00,75.0,54.0,-100.00,West,273,2.0,14.0,48,0.00,,,0.00,86.000000,,2013-09-12 00:52:00,
2013-09-11 20:01:00,75.0,54.0,-100.00,West,273,2.0,14.0,48,0.00,,,0.00,86.000000,,2013-09-12 01:01:00,
2013-09-11 20:11:00,75.0,54.0,-100.00,West,273,2.0,14.0,48,0.00,,,0.00,86.000000,,2013-09-12 01:11:00,
2013-09-11 20:20:00,72.0,52.0,-100.00,WNW,290,6.0,10.0,49,0.00,,,0.00,3.000000,,2013-09-12 01:20:00,
2013-09-11 20:52:00,72.0,52.0,-100.00,WNW,290,6.0,10.0,49,0.00,,,0.00,3.000000,,2013-09-12 01:52:00,
2013-09-11 21:03:00,72.0,52.0,-100.00,WNW,290,6.0,10.0,49,0.00,,,0.00,3.000000,,2013-09-12 02:03:00,
2013-09-11 21:12:00,72.0,52.0,-100.00,WNW,290,6.0,10.0,49,0.00,,,0.00,3.000000,,2013-09-12 02:12:00,
2013-09-11 21:20:00,70.0,51.0,-100.00,NW,305,7.0,13.0,51,0.00,,,0.00,0.000000,,2013-09-12 02:20:00,
2013-09-11 22:11:00,70.0,51.0,-100.00,NW,305,7.0,13.0,51,0.00,,,0.00,0.000000,,2013-09-12 03:11:00,
2013-09-11 22:20:00,67.0,48.0,-100.00,NW,306,7.0,11.0,50,0.00,,,0.00,0.000000,,2013-09-12 03:20:00,
2013-09-11 22:55:00,67.0,48.0,-100.00,NW,306,7.0,11.0,50,0.00,,,0.00,0.000000,,2013-09-12 03:55:00,
2013-09-11 23:05:00,67.0,48.0,-100.00,NW,306,7.0,11.0,50,0.00,,,0.00,0.000000,,2013-09-12 04:05:00,
2013-09-11 23:14:00,67.0,48.0,-100.00,NW,306,7.0,11.0,50,0.00,,,0.00,0.000000,,2013-09-12 04:14:00,
2013-09-11 23:20:00,63.0,48.0,-100.00,WNW,296,5.0,11.0,58,0.00,,,0.00,0.000000,,2013-09-12 04:20:00,
2013-09-11 23:54:00,63.0,48.0,-100.00,WNW,296,5.0,11.0,58,0.00,,,0.00,0.000000,,2013-09-12 04:54:00,